Hlavní strana
METAR-TAF:

METAR-TAF

Letiště :

Weno, Mikronésie

zeměpisná šířka: 07-28N, zeměpisná délka: 151-51E, výška: 3 m

Aktuální stav počasí

Zpráva byla vytvořena před 1 hodinou a 6 minutami, v 11:51 UTC
vítr z různých směrů 5 kt
Teplota 28°C
Vlhkost vzduchu 89%
Tlak 1009 hPa
Viditelnost: 24.1 km
Skoro jasno ve výšce 1400 ft
Polojasno ve výšce 12000 ft
Zataženo ve výšce 28000 ft

METAR: PTKK 251151Z VRB05KT 15SM FEW014 SCT120 OVC280 28/26 A2980 RMK SLP093 70022 8/178 T02810258 10299 20281 52012

Čas: 22:57 (12:57 UTC)

Předpověď počasí

Zpráva byla vytvořena před 1 hodinou a 37 minutami, v 11:20 UTC
Předpověď platná od 25 v 12 UTC do 26 v 12 UTC
Severozápadní vítr 8 kt
Viditelnost: 10 km
Polojasno ve výšce 1400 ft
Polojasno ve výšce 12000 ft
Zataženo ve výšce 28000 ft
přeháňky v blízkosti

TAF: PTKK 251120Z 2512/2612 31008KT P6SM VCSH SCT014 SCT120 OVC280

Stav a předpovědi počasí z více než 4 000 letišť (zprávy METAR a TAF).

Červené a žluté tečky na mapě představují dostupné meteorologické stanice.

Když kurzor umístíte na tečku, zobrazí se název stanice.

Pak kliknutím zobrazíte stav a předpověď počasí.

Chcete-li změnit mapu, kliknutím na zelené tlačítko se znaménkem +mapu přiblížíte, kliknutím na zelené tlačítko se znaménkem – mapu oddálíte a kliknutím na zelené šipky přejdete na sousední mapy.


METAR-TAF: